createdAt,value
2022-09-03T00:02:20.852Z,1.30
2022-09-03T00:05:28.152Z,1.27
2022-09-03T00:08:33.763Z,1.40
2022-09-03T00:11:40.484Z,1.70
2022-09-03T00:14:47.800Z,1.60
2022-09-03T00:17:53.715Z,1.83
2022-09-03T00:21:00.421Z,2.50
2022-09-03T00:24:05.252Z,2.30
2022-09-03T00:27:09.847Z,2.50
2022-09-03T00:30:17.074Z,2.20
2022-09-03T00:33:22.978Z,2.40
2022-09-03T00:36:33.639Z,2.10
2022-09-03T00:39:37.895Z,1.90
2022-09-03T00:42:45.692Z,1.60
2022-09-03T00:45:53.210Z,1.50
2022-09-03T00:49:03.713Z,1.50
2022-09-03T00:52:14.934Z,1.60
2022-09-03T00:55:24.002Z,1.53
2022-09-03T00:58:55.049Z,1.40
2022-09-03T01:02:03.864Z,1.20
2022-09-03T01:05:12.419Z,1.50
2022-09-03T01:08:22.875Z,1.50
2022-09-03T01:11:28.978Z,1.53
2022-09-03T01:14:38.978Z,1.40
2022-09-03T01:17:47.620Z,1.20
2022-09-03T01:20:57.041Z,1.40
2022-09-03T01:24:13.081Z,1.67
2022-09-03T01:27:23.163Z,1.37
2022-09-03T01:30:27.850Z,1.33
2022-09-03T01:33:36.839Z,1.70
2022-09-03T01:36:46.883Z,1.30
2022-09-03T01:39:56.298Z,1.70
2022-09-03T01:43:05.952Z,1.33
2022-09-03T01:46:14.144Z,1.00
2022-09-03T01:49:25.158Z,1.80
2022-09-03T01:52:35.819Z,1.60
2022-09-03T01:55:44.856Z,1.27
2022-09-03T01:58:51.942Z,1.40
2022-09-03T02:02:00.408Z,0.87
2022-09-03T02:05:07.959Z,1.63
2022-09-03T02:08:12.190Z,1.63
2022-09-03T02:11:15.796Z,1.30
2022-09-03T02:14:19.460Z,1.23
2022-09-03T02:17:24.200Z,1.50
2022-09-03T02:20:28.810Z,1.83
2022-09-03T02:23:32.079Z,1.40
2022-09-03T02:26:35.911Z,1.77
2022-09-03T02:29:39.491Z,1.90
2022-09-03T02:32:44.137Z,1.53
2022-09-03T02:35:47.659Z,1.80
2022-09-03T02:38:50.919Z,1.60
2022-09-03T02:41:56.545Z,1.30
2022-09-03T02:45:02.555Z,1.53
2022-09-03T02:48:07.219Z,1.87
2022-09-03T02:51:13.602Z,1.30
2022-09-03T02:54:20.923Z,2.10
2022-09-03T02:57:27.341Z,1.40
2022-09-03T03:00:31.177Z,2.30
2022-09-03T03:03:35.922Z,1.63
2022-09-03T03:06:39.229Z,1.20
2022-09-03T03:09:42.513Z,1.30
2022-09-03T03:12:45.828Z,1.70
2022-09-03T03:15:49.113Z,1.50
2022-09-03T03:18:54.013Z,1.70
2022-09-03T03:21:57.349Z,1.30
2022-09-03T03:25:01.355Z,1.30
2022-09-03T03:28:05.251Z,1.70
2022-09-03T03:31:08.743Z,1.93
2022-09-03T03:34:13.454Z,1.87
2022-09-03T03:37:16.728Z,1.40
2022-09-03T03:40:20.372Z,1.60
2022-09-03T03:43:23.648Z,1.03
2022-09-03T03:46:27.539Z,1.77
2022-09-03T03:49:32.317Z,1.70
2022-09-03T03:52:35.827Z,1.53
2022-09-03T03:55:39.324Z,1.67
2022-09-03T03:58:43.909Z,1.77
2022-09-03T04:01:48.285Z,1.57
2022-09-03T04:04:52.974Z,1.77
2022-09-03T04:07:56.265Z,1.63
2022-09-03T04:11:01.556Z,1.37
2022-09-03T04:14:04.941Z,1.97
2022-09-03T04:17:08.225Z,2.57
2022-09-03T04:20:13.069Z,1.80
2022-09-03T04:23:16.345Z,1.47
2022-09-03T04:26:20.232Z,1.90
2022-09-03T04:29:23.527Z,1.50
2022-09-03T04:32:44.438Z,1.80
2022-09-03T04:35:49.074Z,1.60
2022-09-03T04:38:54.120Z,1.73
2022-09-03T04:41:59.937Z,1.90
2022-09-03T04:45:03.392Z,1.70
2022-09-03T04:48:10.362Z,1.70
2022-09-03T04:51:16.258Z,1.73
2022-09-03T04:54:19.536Z,1.30
2022-09-03T04:57:22.875Z,2.20
2022-09-03T05:00:26.174Z,2.00
2022-09-03T05:03:30.980Z,1.77
2022-09-03T05:06:36.865Z,1.77
2022-09-03T05:09:40.139Z,1.70
2022-09-03T05:12:43.897Z,1.70
2022-09-03T05:15:47.202Z,2.10
2022-09-03T05:18:54.059Z,2.13
2022-09-03T05:21:58.688Z,2.30
2022-09-03T05:25:01.996Z,2.10
2022-09-03T05:28:05.562Z,2.00
2022-09-03T05:31:09.948Z,2.10
2022-09-03T05:34:16.568Z,2.50
2022-09-03T05:37:24.100Z,2.00
2022-09-03T05:40:27.354Z,2.20
2022-09-03T05:43:31.306Z,2.20
2022-09-03T05:46:38.021Z,2.17
2022-09-03T05:49:41.276Z,2.30
2022-09-03T05:52:45.905Z,1.87
2022-09-03T05:55:56.600Z,2.20
2022-09-03T05:59:01.977Z,1.93
2022-09-03T06:02:05.743Z,2.03
2022-09-03T06:05:09.447Z,1.63
2022-09-03T06:08:14.084Z,2.30
2022-09-03T06:11:17.400Z,1.90
2022-09-03T06:14:20.678Z,2.27
2022-09-03T06:17:23.974Z,2.47
2022-09-03T06:20:29.100Z,3.13
2022-09-03T06:23:34.352Z,2.30
2022-09-03T06:26:40.095Z,2.17
2022-09-03T06:29:46.175Z,2.70
2022-09-03T06:32:50.461Z,1.77
2022-09-03T06:35:57.554Z,2.10
2022-09-03T06:39:02.460Z,1.77
2022-09-03T06:42:06.003Z,2.27
2022-09-03T06:45:10.677Z,2.67
2022-09-03T06:48:15.981Z,2.47
2022-09-03T06:51:20.373Z,2.23
2022-09-03T06:54:25.250Z,2.43
2022-09-03T06:57:28.539Z,1.93
2022-09-03T07:00:31.945Z,1.93
2022-09-03T07:03:35.451Z,1.53
2022-09-03T07:06:40.134Z,2.73
2022-09-03T07:09:48.249Z,1.97
2022-09-03T07:12:51.813Z,1.90
2022-09-03T07:16:02.618Z,2.27
2022-09-03T07:19:07.351Z,1.90
2022-09-03T07:22:10.627Z,2.27
2022-09-03T07:25:15.355Z,2.73
2022-09-03T07:28:18.654Z,2.30
2022-09-03T07:31:25.995Z,2.33
2022-09-03T07:34:30.411Z,2.20
2022-09-03T07:37:33.914Z,2.00
2022-09-03T07:40:39.322Z,2.73
2022-09-03T07:43:43.480Z,2.13
2022-09-03T07:46:47.969Z,2.40
2022-09-03T07:49:51.474Z,2.13
2022-09-03T07:52:57.799Z,2.57
2022-09-03T07:56:04.947Z,2.80
2022-09-03T07:59:08.239Z,2.30
2022-09-03T08:02:11.550Z,2.43
2022-09-03T08:05:14.924Z,2.33
2022-09-03T08:08:18.325Z,2.30
2022-09-03T08:11:25.035Z,2.17
2022-09-03T08:14:30.360Z,2.00
2022-09-03T08:17:34.104Z,1.90
2022-09-03T08:20:39.782Z,1.97
2022-09-03T08:23:43.498Z,3.73
2022-09-03T08:26:52.012Z,2.20
2022-09-03T08:29:55.590Z,2.30
2022-09-03T08:32:58.893Z,1.87
2022-09-03T08:36:02.165Z,1.97
2022-09-03T08:39:09.971Z,2.10
2022-09-03T08:42:26.559Z,2.30
2022-09-03T08:45:30.304Z,2.00
2022-09-03T08:48:34.663Z,2.23
2022-09-03T08:51:40.422Z,1.97
2022-09-03T08:54:43.838Z,2.67
2022-09-03T08:57:50.295Z,2.10
2022-09-03T09:01:01.264Z,2.90
2022-09-03T09:04:10.763Z,2.30
2022-09-03T09:07:18.276Z,2.27
2022-09-03T09:10:26.977Z,2.27
2022-09-03T09:13:35.373Z,2.33
2022-09-03T09:16:42.177Z,1.90
2022-09-03T09:19:50.487Z,2.07
2022-09-03T09:22:56.505Z,2.13
2022-09-03T09:26:01.808Z,1.83
2022-09-03T09:29:10.114Z,1.77
2022-09-03T09:32:14.813Z,1.97
2022-09-03T09:35:19.484Z,2.08
2022-09-03T09:38:29.831Z,2.10
2022-09-03T09:41:33.463Z,2.22
2022-09-03T09:44:40.320Z,1.73
2022-09-03T09:47:44.179Z,2.08
2022-09-03T09:50:47.664Z,2.00
2022-09-03T09:54:03.060Z,1.63
2022-09-03T09:57:07.884Z,1.55
2022-09-03T10:00:14.382Z,1.60
2022-09-03T10:03:18.247Z,1.05
2022-09-03T10:06:41.948Z,1.25
2022-09-03T10:09:45.316Z,1.40
2022-09-03T10:12:51.504Z,1.30
2022-09-03T10:15:59.778Z,1.10
2022-09-03T10:19:06.965Z,1.25
2022-09-03T10:22:18.101Z,1.20
2022-09-03T10:25:22.610Z,1.10
2022-09-03T10:28:28.494Z,1.33
2022-09-03T10:31:41.612Z,0.90
2022-09-03T10:34:49.708Z,1.02
2022-09-03T10:37:56.305Z,1.10
2022-09-03T10:41:05.064Z,1.05
2022-09-03T10:44:30.484Z,0.90
2022-09-03T10:47:49.671Z,1.00
2022-09-03T10:50:54.708Z,0.95
2022-09-03T10:54:14.917Z,1.15
2022-09-03T10:57:23.685Z,0.93
2022-09-03T11:00:27.760Z,1.20
2022-09-03T11:03:45.705Z,1.15
2022-09-03T11:06:53.009Z,1.00
2022-09-03T11:09:59.822Z,0.57
2022-09-03T11:13:05.860Z,0.90
2022-09-03T11:16:13.223Z,0.93
2022-09-03T11:19:19.332Z,0.80
2022-09-03T11:22:23.431Z,0.70
2022-09-03T11:25:28.609Z,0.82
2022-09-03T11:28:42.109Z,0.93
2022-09-03T11:31:48.844Z,0.80
2022-09-03T11:34:54.528Z,0.80
2022-09-03T11:38:01.017Z,1.02
2022-09-03T11:41:06.245Z,0.90
2022-09-03T11:44:14.369Z,1.10
2022-09-03T11:47:18.941Z,0.93
2022-09-03T11:50:25.341Z,0.90
2022-09-03T11:53:34.781Z,0.80
2022-09-03T11:56:38.276Z,1.02
2022-09-03T11:59:42.533Z,0.50
2022-09-03T12:02:46.876Z,0.60
2022-09-03T12:05:58.434Z,0.80
2022-09-03T12:09:07.837Z,0.85
2022-09-03T12:12:16.507Z,1.02
2022-09-03T12:15:23.708Z,0.73
2022-09-03T12:18:28.053Z,0.70
2022-09-03T12:21:32.696Z,0.90
2022-09-03T12:24:38.341Z,0.77
2022-09-03T12:27:42.937Z,0.70
2022-09-03T12:30:46.835Z,0.80
2022-09-03T12:33:51.440Z,0.60
2022-09-03T12:36:56.553Z,0.70
2022-09-03T12:40:08.345Z,0.85
2022-09-03T12:46:39.510Z,0.70
2022-09-03T12:49:44.030Z,0.57
2022-09-03T12:52:50.095Z,0.93
2022-09-03T12:55:54.691Z,0.63
2022-09-03T12:58:59.499Z,0.90
2022-09-03T13:02:05.757Z,0.80
2022-09-03T13:05:13.169Z,0.80
2022-09-03T13:08:21.381Z,1.02
2022-09-03T13:11:25.499Z,0.70
2022-09-03T13:14:28.928Z,1.00
2022-09-03T13:17:38.570Z,0.93
2022-09-03T13:20:46.062Z,0.80
2022-09-03T13:24:04.794Z,0.70
2022-09-03T13:27:12.160Z,0.93
2022-09-03T13:30:18.105Z,0.80
2022-09-03T13:33:23.302Z,0.88
2022-09-03T13:36:36.080Z,0.85
2022-09-03T13:39:43.834Z,1.10
2022-09-03T13:42:53.386Z,0.93
2022-09-03T13:45:59.522Z,1.00
2022-09-03T13:49:24.980Z,1.00
2022-09-03T13:52:32.502Z,0.70
2022-09-03T13:55:39.300Z,0.80
2022-09-03T13:58:44.974Z,0.70
2022-09-03T14:01:57.902Z,1.02
2022-09-03T14:05:06.078Z,0.90
2022-09-03T14:08:14.388Z,0.80
2022-09-03T14:11:25.992Z,0.93
2022-09-03T14:14:37.060Z,0.77
2022-09-03T14:17:43.559Z,1.02
2022-09-03T14:20:49.405Z,1.02
2022-09-03T14:23:56.982Z,1.00
2022-09-03T14:27:03.369Z,1.23
2022-09-03T14:30:07.688Z,1.40
2022-09-03T14:33:15.606Z,0.95
2022-09-03T14:36:22.586Z,1.88
2022-09-03T14:39:32.515Z,0.88
2022-09-03T14:42:48.737Z,0.75
2022-09-03T14:46:05.043Z,1.13
2022-09-03T14:49:22.851Z,0.90
2022-09-03T14:52:35.990Z,1.25
2022-09-03T14:56:00.072Z,0.82
2022-09-03T14:59:28.483Z,0.90
2022-09-03T15:02:47.264Z,1.55
2022-09-03T15:06:11.642Z,1.50
2022-09-03T15:09:24.476Z,1.15
2022-09-03T15:12:32.120Z,1.00
2022-09-03T15:15:46.795Z,1.40
2022-09-03T15:19:01.840Z,1.55
2022-09-03T15:22:11.360Z,1.20
2022-09-03T15:25:21.758Z,1.35
2022-09-03T15:28:34.294Z,1.80
2022-09-03T15:31:45.004Z,1.30
2022-09-03T15:34:53.204Z,1.05
2022-09-03T15:37:57.866Z,1.17
2022-09-03T15:41:04.133Z,1.83
2022-09-03T15:44:10.024Z,1.33
2022-09-03T15:47:21.360Z,1.10
2022-09-03T15:50:35.700Z,0.73
2022-09-03T15:53:41.938Z,0.85
2022-09-03T15:56:52.665Z,1.15
2022-09-03T15:59:59.442Z,0.57
2022-09-03T16:03:10.584Z,1.17
2022-09-03T16:06:27.208Z,0.90
2022-09-03T16:09:39.260Z,0.93
2022-09-03T16:12:49.645Z,0.95
2022-09-03T16:15:59.624Z,0.90
2022-09-03T16:19:12.609Z,0.82
2022-09-03T16:22:19.265Z,0.70
2022-09-03T16:25:25.832Z,0.60
2022-09-03T16:28:30.805Z,0.68
2022-09-03T16:31:45.041Z,0.80
2022-09-03T16:34:56.539Z,0.90
2022-09-03T16:38:10.241Z,1.00
2022-09-03T16:41:17.815Z,0.68
2022-09-03T16:44:24.849Z,0.82
2022-09-03T16:47:33.070Z,0.60
2022-09-03T16:50:42.695Z,0.75
2022-09-03T16:53:53.783Z,0.50
2022-09-03T16:57:03.548Z,0.63
2022-09-03T17:00:10.183Z,0.70
2022-09-03T17:03:26.285Z,1.02
2022-09-03T17:06:41.276Z,0.70
2022-09-03T17:09:55.607Z,0.80
2022-09-03T17:13:13.900Z,0.98
2022-09-03T17:16:24.527Z,0.60
2022-09-03T17:19:34.352Z,0.93
2022-09-03T17:22:43.348Z,0.90
2022-09-03T17:25:53.288Z,1.30
2022-09-03T17:29:04.721Z,0.90
2022-09-03T17:32:14.261Z,0.93
2022-09-03T17:35:19.574Z,0.90
2022-09-03T17:38:31.691Z,1.00
2022-09-03T17:41:42.512Z,0.98
2022-09-03T17:44:49.604Z,1.00
2022-09-03T17:48:07.144Z,0.82
2022-09-03T17:51:14.625Z,1.40
2022-09-03T17:54:27.609Z,1.33
2022-09-03T17:57:33.378Z,1.20
2022-09-03T18:00:41.036Z,1.02
2022-09-03T18:03:49.036Z,1.35
2022-09-03T18:06:55.939Z,1.90
2022-09-03T18:10:05.348Z,1.48
2022-09-03T18:13:13.650Z,1.73
2022-09-03T18:16:20.364Z,1.15
2022-09-03T18:19:31.909Z,0.80
2022-09-03T18:22:56.302Z,0.80
2022-09-03T18:26:21.400Z,1.40
2022-09-03T18:29:52.390Z,0.90
2022-09-03T18:33:16.319Z,0.90
2022-09-03T18:36:37.256Z,0.90
2022-09-03T18:39:58.175Z,0.50
2022-09-03T18:43:24.116Z,0.60
2022-09-03T18:50:36.211Z,0.77
2022-09-03T18:54:03.000Z,0.63
2022-09-03T18:57:27.944Z,0.65
2022-09-03T19:00:52.200Z,0.70
2022-09-03T19:04:18.408Z,0.90
2022-09-03T19:07:42.725Z,0.73
2022-09-03T19:11:10.511Z,0.60
2022-09-03T19:14:35.186Z,0.77
2022-09-03T19:18:01.537Z,1.10
2022-09-03T19:21:28.345Z,0.73
2022-09-03T19:24:50.132Z,0.93
2022-09-03T19:28:21.305Z,0.60
2022-09-03T19:31:56.031Z,0.90
2022-09-03T19:35:29.176Z,0.67
2022-09-03T19:38:57.122Z,0.80
2022-09-03T19:42:21.328Z,0.82
2022-09-03T19:45:48.083Z,1.15
2022-09-03T19:49:17.066Z,0.90
2022-09-03T19:52:42.660Z,0.60
2022-09-03T19:56:07.742Z,1.40
2022-09-03T19:59:32.044Z,0.90
2022-09-03T20:02:53.897Z,0.70
2022-09-03T20:06:15.157Z,1.27
2022-09-03T20:09:40.251Z,1.13
2022-09-03T20:12:47.595Z,1.17
2022-09-03T20:15:56.462Z,1.00
2022-09-03T20:19:02.640Z,1.10
2022-09-03T20:22:12.197Z,0.97
2022-09-03T20:25:28.399Z,0.70
2022-09-03T20:28:39.413Z,0.83
2022-09-03T20:31:48.928Z,1.10
2022-09-03T20:34:54.795Z,0.77
2022-09-03T20:38:04.966Z,1.10
2022-09-03T20:41:16.415Z,1.00
2022-09-03T20:44:27.477Z,1.00
2022-09-03T20:47:45.708Z,1.03
2022-09-03T20:50:53.249Z,1.03
2022-09-03T20:54:09.519Z,1.27
2022-09-03T20:57:23.213Z,0.90
2022-09-03T21:00:26.576Z,1.40
2022-09-03T21:03:32.151Z,1.30
2022-09-03T21:06:38.312Z,1.17
2022-09-03T21:09:44.648Z,1.10
2022-09-03T21:12:54.818Z,0.90
2022-09-03T21:16:00.548Z,1.30
2022-09-03T21:19:09.024Z,1.13
2022-09-03T21:22:17.209Z,1.20
2022-09-03T21:25:24.253Z,1.30
2022-09-03T21:28:31.117Z,1.47
2022-09-03T21:31:38.822Z,1.40
2022-09-03T21:34:42.993Z,1.33
2022-09-03T21:37:51.630Z,1.37
2022-09-03T21:40:57.006Z,1.07
2022-09-03T21:44:04.695Z,1.23
2022-09-03T21:47:10.170Z,1.23
2022-09-03T21:50:18.761Z,1.30
2022-09-03T21:53:26.820Z,0.93
2022-09-03T21:56:52.026Z,1.40
2022-09-03T22:00:12.973Z,1.03
2022-09-03T22:03:16.296Z,0.97
2022-09-03T22:06:25.850Z,0.90
2022-09-03T22:09:33.790Z,1.10
2022-09-03T22:12:41.789Z,1.20
2022-09-03T22:15:51.925Z,1.40
2022-09-03T22:18:56.198Z,1.40
2022-09-03T22:22:00.301Z,1.20
2022-09-03T22:25:06.941Z,1.50
2022-09-03T22:28:14.178Z,1.47
2022-09-03T22:31:22.313Z,1.00
2022-09-03T22:34:32.667Z,0.90
2022-09-03T22:37:45.332Z,1.00
2022-09-03T22:40:52.532Z,0.80
2022-09-03T22:44:00.443Z,1.27
2022-09-03T22:47:08.050Z,1.03
2022-09-03T22:50:16.795Z,1.30
2022-09-03T22:53:25.018Z,0.87
2022-09-03T22:56:31.048Z,0.80
2022-09-03T22:59:37.061Z,0.80
2022-09-03T23:02:43.337Z,0.80
2022-09-03T23:05:50.138Z,0.90
2022-09-03T23:08:55.712Z,1.10
2022-09-03T23:12:00.072Z,1.07
2022-09-03T23:15:09.133Z,1.20
2022-09-03T23:18:17.678Z,0.67
2022-09-03T23:21:24.553Z,0.83
2022-09-03T23:24:29.837Z,1.60
2022-09-03T23:27:35.953Z,1.23
2022-09-03T23:30:41.469Z,0.70
2022-09-03T23:33:46.417Z,0.80
2022-09-03T23:37:16.077Z,0.70
2022-09-03T23:40:35.409Z,0.60
2022-09-03T23:43:53.656Z,0.93
2022-09-03T23:46:59.584Z,0.97
2022-09-03T23:50:07.708Z,0.67
2022-09-03T23:53:35.136Z,0.60
2022-09-03T23:56:50.405Z,1.13
2022-09-03T23:59:59.805Z,0.70
